Happy Valentine's Day! 

Flight Track Log - Related Links

Times and Time Zones

All times are in EDT time to prevent confusion due to time zone crossing. See the N2782Y flight status page for this flight to view local times or setup timezone preferences in your user account.


Time Position Orientation Groundspeed Altitude Reporting Facility
EDT Latitude Longitude Course Direction KTS MPH feet Rate Location/Type
Sun 09:00:25 PM 41.4450 -82.7714 249° West 149 171 2,500  Level Cleveland Center
Sun 09:01:29 PM 41.4294 -82.8264 249° West 158 182 3,000 75 Climbing Cleveland Center
Sun 09:03:00 PM 41.4093 -82.8919 249° West  Level Estimated
Sun 09:10:00 PM 41.3064 -83.1883 245° Southwest  Level FlightAware Approximate
Sun 09:11:00 PM 41.2916 -83.2306 245° Southwest  Level FlightAware Approximate
Sun 09:12:00 PM 41.2768 -83.2728 245° Southwest  Level FlightAware Approximate
Sun 09:13:00 PM 41.2620 -83.3151 245° Southwest  Level FlightAware Approximate
Sun 09:14:00 PM 41.2472 -83.3573 245° Southwest  Level FlightAware Approximate
Sun 09:15:00 PM 41.2324 -83.3995 245° Southwest  Level FlightAware Approximate
Sun 09:16:00 PM 41.2175 -83.4416 245° Southwest  Level FlightAware Approximate
Sun 09:17:00 PM 41.2027 -83.4838 245° Southwest  Level FlightAware Approximate
Sun 09:18:00 PM 41.1878 -83.5259 245° Southwest  Level FlightAware Approximate
Sun 09:19:00 PM 41.1729 -83.5680 245° Southwest  Level FlightAware Approximate
Sun 09:20:00 PM 41.1580 -83.6101 245° Southwest  Level FlightAware Approximate
Sun 09:20:18 PM 41.0675 -83.9644 245° Southwest 205 236 4,000  Level Chicago Center
Sun 09:21:00 PM 41.1431 -83.6522 245° Southwest  Level FlightAware Approximate
Sun 09:21:20 PM 41.0486 -84.0283 249° West 187 215 4,000  Level Chicago Center
Sun 09:22:00 PM 41.1281 -83.6943 245° Southwest  Level FlightAware Approximate
Sun 09:22:22 PM 41.0306 -84.0906 249° West 184 212 4,000  Level Chicago Center
Sun 09:23:00 PM 41.1132 -83.7363 245° Southwest  Level FlightAware Approximate
Sun 09:23:24 PM 41.0106 -84.1519 247° West 182 209 4,000  Level Chicago Center
Sun 09:24:00 PM 41.0982 -83.7783 245° Southwest  Level FlightAware Approximate
Sun 09:24:25 PM 40.9869 -84.2256 247° West 182 209 4,000  Level Chicago Center
Sun 09:25:00 PM 41.0832 -83.8203 245° Southwest  Level FlightAware Approximate
Sun 09:25:27 PM 40.9664 -84.2869 246° West 182 209 4,000  Level Chicago Center
Sun 09:26:29 PM 40.9458 -84.3503 247° West 184 212 3,500 -339 Descending Chicago Center
Sun 09:27:31 PM 40.9261 -84.4133 248° West 184 212 3,300 -194 Descending Chicago Center

Login

Don't have an account? Register now (free) for customized features, flight alerts, and more!